createdAt,value
2023-04-05T00:00:10.613Z,11.32
2023-04-05T00:05:12.884Z,11.93
2023-04-05T00:10:14.551Z,12.13
2023-04-05T00:15:16.766Z,14.98
2023-04-05T00:20:18.700Z,12.07
2023-04-05T00:25:21.870Z,9.35
2023-04-05T00:30:23.919Z,8.45
2023-04-05T00:35:28.037Z,9.02
2023-04-05T00:40:29.728Z,11.00
2023-04-05T00:45:31.877Z,11.60
2023-04-05T00:50:33.821Z,10.18
2023-04-05T00:55:36.400Z,12.77
2023-04-05T01:00:39.808Z,9.65
2023-04-05T01:05:51.669Z,11.13
2023-04-05T01:10:57.287Z,10.15
2023-04-05T01:15:59.272Z,10.88
2023-04-05T01:21:20.933Z,15.30
2023-04-05T01:26:44.114Z,15.77
2023-04-05T01:31:56.838Z,7.80
2023-04-05T01:37:06.190Z,9.70
2023-04-05T01:42:08.546Z,16.10
2023-04-05T01:47:10.231Z,8.35
2023-04-05T01:52:11.973Z,13.55
2023-04-05T01:57:13.575Z,11.77
2023-04-05T02:02:15.648Z,8.65
2023-04-05T02:07:17.253Z,10.80
2023-04-05T02:12:18.862Z,9.73
2023-04-05T02:17:21.900Z,9.40
2023-04-05T02:22:23.526Z,9.70
2023-04-05T02:27:25.397Z,9.20
2023-04-05T02:32:28.714Z,11.20
2023-04-05T02:37:30.926Z,9.65
2023-04-05T02:42:32.509Z,9.25
2023-04-05T02:47:34.681Z,8.70
2023-04-05T02:52:37.676Z,9.05
2023-04-05T02:57:41.168Z,12.75
2023-04-05T03:02:56.775Z,11.30
2023-04-05T03:07:59.564Z,11.13
2023-04-05T03:13:05.033Z,11.88
2023-04-05T03:18:06.751Z,10.18
2023-04-05T03:23:09.291Z,10.52
2023-04-05T03:28:12.398Z,11.48
2023-04-05T03:33:19.473Z,14.20
2023-04-05T03:38:24.478Z,10.30
2023-04-05T03:43:43.051Z,15.80
2023-04-05T03:48:44.743Z,12.05
2023-04-05T03:53:46.356Z,13.10
2023-04-05T03:58:48.645Z,15.57
2023-04-05T04:03:52.912Z,15.32
2023-04-05T04:08:54.647Z,14.98
2023-04-05T04:13:56.893Z,15.50
2023-04-05T04:19:09.099Z,13.98
2023-04-05T04:24:40.735Z,11.90
2023-04-05T04:30:04.103Z,11.57
2023-04-05T04:35:41.112Z,19.55
2023-04-05T04:41:06.733Z,15.35
2023-04-05T04:46:19.135Z,11.52
2023-04-05T04:51:38.290Z,10.57
2023-04-05T04:56:39.872Z,11.55
2023-04-05T05:01:42.289Z,10.60
2023-04-05T05:06:45.380Z,9.60
2023-04-05T05:11:47.167Z,12.25
2023-04-05T05:16:48.807Z,11.88
2023-04-05T05:21:53.950Z,9.50
2023-04-05T05:26:55.712Z,12.05
2023-04-05T05:31:57.371Z,13.50
2023-04-05T05:36:58.994Z,15.90
2023-04-05T05:42:00.704Z,12.48
2023-04-05T05:47:03.027Z,10.57
2023-04-05T05:52:05.055Z,9.02
2023-04-05T05:57:06.676Z,10.93
2023-04-05T06:02:08.485Z,11.80
2023-04-05T06:07:11.166Z,9.25
2023-04-05T06:12:12.950Z,17.33
2023-04-05T06:17:14.592Z,9.13
2023-04-05T06:22:16.542Z,19.38
2023-04-05T06:27:18.375Z,9.63
2023-04-05T06:32:20.733Z,8.43
2023-04-05T06:37:22.352Z,8.10
2023-04-05T06:42:25.392Z,10.07
2023-04-05T06:47:35.754Z,7.70
2023-04-05T06:52:38.027Z,12.48
2023-04-05T06:57:39.675Z,9.18
2023-04-05T07:02:41.346Z,12.35
2023-04-05T07:07:44.486Z,8.40
2023-04-05T07:12:46.127Z,11.45
2023-04-05T07:17:47.845Z,9.80
2023-04-05T07:22:49.539Z,8.20
2023-04-05T07:27:52.748Z,6.38
2023-04-05T07:32:55.366Z,9.77
2023-04-05T07:37:57.312Z,7.88
2023-04-05T07:42:59.034Z,11.35
2023-04-05T07:48:00.701Z,10.82
2023-04-05T07:53:02.563Z,7.88
2023-04-05T07:58:04.163Z,12.82
2023-04-05T08:03:06.150Z,9.52
2023-04-05T08:08:11.082Z,8.02
2023-04-05T08:13:12.795Z,8.38
2023-04-05T08:18:14.499Z,9.02
2023-04-05T08:23:16.090Z,11.55
2023-04-05T08:28:17.892Z,8.60
2023-04-05T08:33:19.750Z,9.13
2023-04-05T08:38:21.637Z,10.38
2023-04-05T08:43:28.412Z,9.60
2023-04-05T08:48:35.014Z,7.70
2023-04-05T08:53:36.755Z,6.95
2023-04-05T08:58:39.572Z,8.23
2023-04-05T09:03:42.986Z,8.43
2023-04-05T09:08:44.911Z,12.38
2023-04-05T09:13:46.551Z,9.07
2023-04-05T09:18:49.155Z,9.10
2023-04-05T09:23:55.669Z,10.07
2023-04-05T09:28:57.333Z,9.27
2023-04-05T09:34:03.728Z,7.00
2023-04-05T09:39:09.977Z,7.55
2023-04-05T09:44:11.616Z,9.43
2023-04-05T09:49:14.423Z,5.53
2023-04-05T09:54:16.440Z,6.97
2023-04-05T09:59:18.250Z,6.25
2023-04-05T10:04:20.045Z,6.35
2023-04-05T10:09:22.109Z,7.13
2023-04-05T10:14:23.984Z,5.78
2023-04-05T10:20:01.053Z,5.65
2023-04-05T10:25:13.688Z,7.28
2023-04-05T10:30:16.576Z,5.00
2023-04-05T10:35:41.532Z,5.68
2023-04-05T10:40:48.525Z,10.45
2023-04-05T10:45:53.449Z,4.70
2023-04-05T10:50:56.587Z,7.18
2023-04-05T10:55:59.166Z,6.47
2023-04-05T11:01:01.953Z,5.18
2023-04-05T11:06:19.103Z,7.55
2023-04-05T11:11:22.864Z,6.32
2023-04-05T11:16:38.558Z,5.90
2023-04-05T11:21:40.471Z,6.10
2023-04-05T11:26:48.192Z,8.52
2023-04-05T11:32:06.198Z,5.40
2023-04-05T11:37:07.993Z,7.05
2023-04-05T11:42:16.031Z,6.45
2023-04-05T11:47:21.639Z,11.03
2023-04-05T11:52:23.478Z,9.25
2023-04-05T11:57:25.313Z,3.40
2023-04-05T12:02:27.046Z,7.20
2023-04-05T12:07:32.065Z,8.00
2023-04-05T12:12:41.971Z,8.40
2023-04-05T12:17:51.948Z,6.13
2023-04-05T12:22:55.658Z,5.47
2023-04-05T12:27:57.350Z,5.53
2023-04-05T12:32:59.217Z,6.05
2023-04-05T12:38:03.147Z,5.65
2023-04-05T12:43:09.254Z,5.68
2023-04-05T12:48:15.813Z,6.78
2023-04-05T12:53:20.500Z,8.73
2023-04-05T12:58:37.922Z,7.97
2023-04-05T13:03:44.034Z,5.15
2023-04-05T13:08:45.941Z,10.13
2023-04-05T13:13:47.562Z,7.20
2023-04-05T13:18:49.203Z,10.55
2023-04-05T13:23:50.887Z,4.55
2023-04-05T13:28:52.505Z,4.80
2023-04-05T13:33:54.302Z,6.03
2023-04-05T13:38:56.259Z,5.55
2023-04-05T13:43:59.761Z,9.77
2023-04-05T13:49:02.822Z,6.00
2023-04-05T13:54:04.545Z,12.90
2023-04-05T13:59:06.509Z,7.20
2023-04-05T14:04:08.284Z,9.73
2023-04-05T14:09:10.019Z,10.52
2023-04-05T14:14:11.953Z,4.20
2023-04-05T14:19:13.706Z,4.43
2023-04-05T14:24:15.453Z,4.15
2023-04-05T14:29:17.984Z,13.43
2023-04-05T14:34:19.816Z,6.75
2023-04-05T14:39:21.781Z,4.95
2023-04-05T14:44:24.415Z,9.02
2023-04-05T14:49:26.352Z,6.95
2023-04-05T14:54:28.385Z,5.50
2023-04-05T14:59:31.010Z,7.95
2023-04-05T15:04:32.949Z,6.57
2023-04-05T15:09:34.716Z,9.50
2023-04-05T15:14:36.690Z,5.28
2023-04-05T15:19:38.372Z,5.43
2023-04-05T15:24:41.770Z,5.95
2023-04-05T15:29:43.661Z,7.80
2023-04-05T15:34:46.131Z,9.60
2023-04-05T15:39:48.014Z,4.95
2023-04-05T15:44:50.271Z,4.32
2023-04-05T15:49:52.164Z,3.97
2023-04-05T15:54:53.938Z,5.75
2023-04-05T15:59:55.674Z,6.60
2023-04-05T16:04:57.466Z,8.55
2023-04-05T16:09:59.216Z,6.20
2023-04-05T16:15:00.943Z,5.47
2023-04-05T16:20:02.757Z,6.38
2023-04-05T16:25:04.968Z,7.32
2023-04-05T16:30:07.718Z,3.97
2023-04-05T16:35:10.139Z,6.13
2023-04-05T16:40:12.766Z,5.25
2023-04-05T16:45:14.481Z,3.72
2023-04-05T16:50:16.224Z,5.47
2023-04-05T16:55:17.888Z,5.07
2023-04-05T17:00:20.219Z,5.65
2023-04-05T17:05:21.914Z,7.97
2023-04-05T17:10:23.849Z,3.90
2023-04-05T17:15:26.320Z,7.70
2023-04-05T17:20:28.157Z,6.10
2023-04-05T17:25:31.324Z,10.40
2023-04-05T17:30:33.420Z,4.68
2023-04-05T17:35:35.509Z,8.43
2023-04-05T17:40:37.308Z,6.80
2023-04-05T17:45:39.381Z,4.75
2023-04-05T17:50:41.184Z,5.47
2023-04-05T17:55:43.443Z,5.47
2023-04-05T18:00:45.170Z,5.65
2023-04-05T18:05:54.268Z,5.95
2023-04-05T18:10:57.949Z,4.95
2023-04-05T18:16:00.387Z,4.80
2023-04-05T18:21:02.234Z,3.58
2023-04-05T18:26:07.978Z,8.00
2023-04-05T18:31:10.223Z,5.38
2023-04-05T18:36:12.898Z,3.90
2023-04-05T18:41:15.242Z,5.20
2023-04-05T18:46:18.630Z,5.88
2023-04-05T18:51:24.911Z,7.82
2023-04-05T18:56:29.938Z,5.63
2023-04-05T19:01:31.946Z,9.02
2023-04-05T19:06:34.755Z,6.82
2023-04-05T19:11:36.429Z,5.47
2023-04-05T19:16:38.237Z,6.18
2023-04-05T19:21:39.992Z,4.80
2023-04-05T19:26:43.031Z,5.38
2023-04-05T19:31:44.955Z,5.70
2023-04-05T19:36:46.692Z,7.13
2023-04-05T19:41:48.402Z,7.05
2023-04-05T19:46:50.344Z,7.10
2023-04-05T19:51:56.140Z,5.97
2023-04-05T19:57:01.190Z,7.20
2023-04-05T20:02:19.072Z,6.20
2023-04-05T20:07:21.166Z,7.73
2023-04-05T20:12:23.408Z,5.38
2023-04-05T20:22:32.699Z,8.07
2023-04-05T20:27:34.377Z,8.35
2023-04-05T20:32:36.118Z,6.30
2023-04-05T20:37:37.815Z,8.07
2023-04-05T20:42:39.676Z,7.57
2023-04-05T20:47:41.602Z,10.05
2023-04-05T20:52:43.344Z,6.78
2023-04-05T20:57:45.003Z,9.70
2023-04-05T21:02:47.201Z,8.13
2023-04-05T21:07:49.209Z,14.23
2023-04-05T21:12:52.277Z,12.70
2023-04-05T21:17:56.037Z,9.68
2023-04-05T21:22:59.223Z,9.30
2023-04-05T21:28:01.351Z,10.27
2023-04-05T21:33:03.052Z,9.60
2023-04-05T21:38:05.521Z,11.57
2023-04-05T21:43:07.303Z,13.18
2023-04-05T21:48:09.047Z,7.25
2023-04-05T21:53:10.923Z,8.23
2023-04-05T21:58:12.913Z,11.02
2023-04-05T22:03:14.659Z,9.30
2023-04-05T22:08:17.150Z,11.60
2023-04-05T22:13:18.987Z,9.20
2023-04-05T22:18:20.659Z,9.10
2023-04-05T22:23:22.379Z,9.43
2023-04-05T22:28:24.163Z,13.00
2023-04-05T22:33:25.955Z,8.90
2023-04-05T22:38:29.333Z,12.02
2023-04-05T22:43:31.168Z,12.65
2023-04-05T22:48:32.961Z,11.55
2023-04-05T22:53:34.626Z,12.85
2023-04-05T22:58:36.736Z,16.02
2023-04-05T23:03:38.481Z,24.38
2023-04-05T23:08:40.266Z,22.83
2023-04-05T23:13:41.944Z,15.52
2023-04-05T23:18:43.742Z,9.20
2023-04-05T23:23:45.404Z,9.50
2023-04-05T23:28:47.099Z,11.95
2023-04-05T23:33:48.962Z,10.50
2023-04-05T23:38:51.059Z,13.23
2023-04-05T23:43:53.036Z,22.42
2023-04-05T23:48:54.713Z,14.60
2023-04-05T23:53:56.429Z,12.07
2023-04-05T23:58:58.176Z,12.55
